NEODyS-2

Near Earth Objects - Dynamic Site
NEODyS ∴ Observatories ∴ Site 691 ∴ Obs & residuals
Contact »
691  ▹ 
OBSERVATIONS AND RESIDUALS

691-Steward Observatory, Kitt Peak-Spacewatch

Detections | Residuals | Detections & Residuals

[1-200] [201-400] [401-600] [601-800] [801-1000] [1001-1200] [1201-1400] [1401-1600] [1601-1800] [1801-2000] [2001-2200] [2201-2400] [2401-2600] [2601-2800] [2801-3000] [3001-3200] [3201-3400] [3401-3600] [3601-3800] [3801-4000] [4001-4200] [4201-4400] [4401-4600] [4601-4800] [4801-5000] [5001-5200] [5201-5400] [5401-5600] [5601-5800] [5801-6000] [6001-6200] [6201-6400] [6401-6600] [6601-6800] [6801-7000] [7001-7200] [7201-7400] [7401-7600] [7601-7800] [7801-8000] [8001-8200] [8201-8400] [8401-8600] [8601-8800] [8801-9000] [9001-9200] [9201-9400] [9401-9600] [9601-9800] [9801-10000] [10001-10200] [10201-10400] [10401-10600] [10601-10800] [10801-11000] [11001-11200] [11201-11400] [11401-11600] [11601-11800] [11801-12000] [12001-12200] [12201-12400] [12401-12600] [12601-12800] [12801-13000] [13001-13200] [13201-13400] [13401-13600] [13601-13800] [13801-14000] [14001-14200] [14201-14400] [14401-14600] [14601-14800] [14801-15000] [15001-15200] [15201-15400] [15401-15600] [15601-15800] [15801-16000] [16001-16200] [16201-16400] [16401-16600] [16601-16800] [16801-17000] [17001-17200] [17201-17400] [17401-17600] [17601-17800] [17801-18000] [18001-18200] [18201-18400] [18401-18600] [18601-18800] [18801-19000] [19001-19200] [19201-19400] [19401-19600] [19601-19800] [19801-20000] [20001-20200] [20201-20400] [20401-20600] [20601-20800] [20801-21000] [21001-21200] [21201-21400] [21401-21600] [21601-21800] [21801-22000] [22001-22200] [22201-22400] [22401-22600] [22601-22800] [22801-23000] [23001-23200] [23201-23400] [23401-23600] [23601-23800] [23801-24000] [24001-24200] [24201-24400] [24401-24600] [24601-24800] [24801-25000] [25001-25200] [25201-25400] [25401-25600] [25601-25800] [25801-26000] [26001-26200] [26201-26400] [26401-26600] [26601-26800] [26801-27000] [27001-27200] [27201-27400] [27401-27600] [27601-27800] [27801-28000] [28001-28200] [28201-28400] [28401-28600] [28601-28800] [28801-29000] [29001-29200] [29201-29400] [29401-29600] [29601-29800] [29801-30000] [30001-30200] [30201-30400] [30401-30600] [30601-30800] [30801-31000] [31001-31200] [31201-31400] [31401-31600] [31601-31800] [31801-32000] [32001-32200] [32201-32400] [32401-32600] [32601-32800] [32801-33000] [33001-33200] [33201-33400] [33401-33600] [33601-33800] [33801-34000] [34001-34200] [34201-34400] [34401-34600] [34601-34800] [34801-35000] [35001-35200] [35201-35400] [35401-35600] [35601-35800] [35801-36000] [36001-36200] [36201-36400] [36401-36600] [36601-36800] [36801-37000] [37001-37200] [37201-37400] [37401-37600] [37601-37800] [37801-38000] [38001-38200] [38201-38400] [38401-38600] [38601-38800] [38801-39000] [39001-39200] [39201-39400] [39401-39600] [39601-39800] [39801-40000] [40001-40200] [40201-40400] [40401-40600] [40601-40800] [40801-41000] [41001-41200] [41201-41400] [41401-41600] [41601-41800] [41801-42000] [42001-42200] [42201-42400] [42401-42600] [42601-42800] [42801-43000] [43001-43200] [43201-43400] [43401-43600] [43601-43800] [43801-44000] [44001-44200] [44201-44400] [44401-44600] [44601-44800] [44801-45000] [45001-45200] [45201-45400] [45401-45600] [45601-45800] [45801-46000] [46001-46200] [46201-46400] [46401-46600] [46601-46800] [46801-47000] [47001-47200] [47201-47400] [47401-47600] [47601-47800] [47801-48000] [48001-48200] [48201-48400] [48401-48600] [48601-48800] [48801-49000] [49001-49200] [49201-49400] [49401-49600] [49601-49800] [49801-50000] [50001-50200] [50201-50388]

Designation T Tech N Date Right Ascension Declination Apparent Magnitude Star Catalog Site code χ Used A Used M
yr-mo-day precision hr:min:sec precision rms F bias residual deg min sec precision rms F bias residual mag/col rms residual
2004FE31 O C 2004-04-14.23389 1.000E-05 12:17:04.540 1.500E-01 0.500 F 0.461 0.258 -04° 47' 58.80" 1.000E-01 0.500 F 0.289 -0.568 21.2 V 0.70 0.65 c 691 1.25 Yes Yes
2004DK1 O C 2004-04-16.23410 1.000E-05 13:51:12.280 1.500E-01 0.500 F 0.409 -0.288 -08° 29' 19.50" 1.000E-01 0.500 F 0.310 0.040 16.6 V 0.70 0.50 c 691 0.59 Yes Yes
2004DK1 O C 2004-04-16.26559 1.000E-05 13:51:22.230 1.500E-01 0.500 F 0.409 -0.174 -08° 30' 49.50" 1.000E-01 0.500 F 0.310 0.167 16.1 V 0.70 0.00 c 691 0.49 Yes Yes
2004DK1 O C 2004-04-16.29556 1.000E-05 13:51:31.620 1.500E-01 0.500 F 0.409 -0.207 -08° 32' 15.00" 1.000E-01 0.500 F 0.310 -0.004 16.0 V 0.70 -0.10 c 691 0.42 Yes Yes
2004FJ11 O C 2004-04-17.19302 1.000E-05 11:14:33.980 1.500E-01 0.500 F 0.515 -0.130 +05° 03' 55.70" 1.000E-01 0.500 F 0.457 -0.118 19.2 V 0.70 0.43 c 691 0.36 Yes Yes
Melissabrucker O C 2004-04-17.19302 1.000E-05 11:15:50.140 1.500E-01 0.500 F 0.515 -0.240 +05° 40' 03.40" 1.000E-01 0.500 F 0.457 -0.068 18.6 V 0.70 0.23 c 691 0.50 Yes Yes
2004FJ11 O C 2004-04-17.22000 1.000E-05 11:14:30.280 1.500E-01 0.500 F 0.515 -0.314 +05° 03' 48.40" 1.000E-01 0.500 F 0.457 -0.285 19.4 V 0.70 0.63 c 691 0.86 Yes Yes
Melissabrucker O C 2004-04-17.22000 1.000E-05 11:15:49.360 1.500E-01 0.500 F 0.515 -0.225 +05° 40' 09.60" 1.000E-01 0.500 F 0.457 0.008 18.9 V 0.70 0.52 c 691 0.45 Yes Yes
2004FJ11 O C 2004-04-17.24898 1.000E-05 11:14:26.290 1.500E-01 0.500 F 0.515 -0.829 +05° 03' 40.50" 1.000E-01 0.500 F 0.457 -0.367 19.6 V 0.70 0.83 c 691 1.84 Yes Yes
Melissabrucker O C 2004-04-17.24898 1.000E-05 11:15:48.520 1.500E-01 0.500 F 0.515 -0.272 +05° 40' 16.10" 1.000E-01 0.500 F 0.457 -0.048 19.1 V 0.70 0.72 c 691 0.55 Yes Yes
2004FE31 O C 2004-04-19.14389 1.000E-05 12:10:59.490 1.500E-01 0.500 F 0.537 0.192 -03° 34' 27.60" 1.000E-01 0.500 F 0.235 -0.527 20.9 V 0.70 0.23 c 691 1.12 Yes Yes
2004FE31 O C 2004-04-19.17034 1.000E-05 12:10:57.540 1.500E-01 0.500 F 0.537 -0.060 -03° 34' 04.40" 1.000E-01 0.500 F 0.235 -0.515 20.9 V 0.70 0.23 c 691 1.04 Yes Yes
2004FE31 O C 2004-04-19.19744 1.000E-05 12:10:55.510 1.500E-01 0.500 F 0.537 -0.738 -03° 33' 39.90" 1.000E-01 0.500 F 0.235 0.224 20.6 V 0.70 -0.07 c 691 1.55 Yes Yes
1998RO4 O C 2004-04-20.13610 1.000E-05 12:31:19.860 1.500E-01 0.500 F 0.528 -0.155 -01° 56' 50.10" 1.000E-01 0.500 F 0.087 0.105 20.3 V 0.70 0.26 c 691 0.38 Yes Yes
2000FO10 O C 2004-04-20.15173 1.000E-05 12:36:13.000 1.500E-01 0.500 F 0.760 -0.167 -07° 10' 29.60" 1.000E-01 0.500 F 0.156 0.026 16.4 V 0.70 -0.51 c 691 0.34 Yes Yes
1998RO4 O C 2004-04-20.16260 1.000E-05 12:31:18.040 1.500E-01 0.500 F 0.528 -0.155 -01° 56' 32.80" 1.000E-01 0.500 F 0.087 -0.075 20.2 V 0.70 0.16 c 691 0.34 Yes Yes
2000FO10 O C 2004-04-20.17839 1.000E-05 12:36:06.820 1.500E-01 0.500 F 0.760 -0.207 -07° 09' 12.80" 1.000E-01 0.500 F 0.156 0.044 16.4 V 0.70 -0.51 c 691 0.42 Yes Yes
1998RO4 O C 2004-04-20.18951 1.000E-05 12:31:16.180 1.500E-01 0.500 F 0.528 -0.228 -01° 56' 14.90" 1.000E-01 0.500 F 0.087 0.074 20.1 V 0.70 0.06 c 691 0.48 Yes Yes
2000FO10 O C 2004-04-20.20591 1.000E-05 12:36:00.410 1.500E-01 0.500 F 0.760 -0.490 -07° 07' 53.70" 1.000E-01 0.500 F 0.156 -0.157 16.3 V 0.70 -0.61 c 691 1.03 Yes Yes
2004HE12 O C H 2004-04-21.15795 1.000E-05 06:24:16.820 1.500E-01 0.500 F 0.037 0.609 +21° 07' 38.80" 1.000E-01 0.500 F 0.197 -0.450 c 691 1.54 Yes No
2004HE12 O C H 2004-04-21.15985 1.000E-05 06:24:17.290 1.500E-01 0.500 F 0.037 0.557 +21° 07' 32.30" 1.000E-01 0.500 F 0.197 -0.352 c 691 1.34 Yes No
2000EV70 O C 2004-04-21.27973 1.000E-05 12:07:28.500 1.500E-01 0.500 F 0.505 -0.461 +03° 44' 33.40" 1.000E-01 0.500 F 0.192 0.147 21.4 V 0.70 0.81 c 691 0.97 Yes Yes
2000EV70 O C 2004-04-21.30770 1.000E-05 12:07:26.650 1.500E-01 0.500 F 0.505 -0.465 +03° 44' 35.70" 1.000E-01 0.500 F 0.192 -0.066 21.7 V 0.70 1.11 c 691 0.94 Yes Yes
2000EV70 O C 2004-04-21.33912 1.000E-05 12:07:24.610 1.500E-01 0.500 F 0.505 -0.240 +03° 44' 38.60" 1.000E-01 0.500 F 0.192 0.069 21.2 V 0.70 0.61 c 691 0.50 Yes Yes
2004KE1 O C 2004-04-21.35277 1.000E-05 15:34:00.630 1.500E-01 0.500 F 0.092 -0.597 -18° 07' 06.80" 1.000E-01 0.500 F 0.109 0.041 21.7 V 0.70 0.77 c 691 1.22 Yes Yes
Anza O C 2004-04-21.35277 1.000E-05 15:33:58.910 1.500E-01 0.500 F 0.092 0.149 -17° 15' 21.10" 1.000E-01 0.500 F 0.109 -0.164 20.7 V 0.70 0.43 c 691 0.44 Yes Yes
2004KE1 O C 2004-04-21.38144 1.000E-05 15:33:59.110 1.500E-01 0.500 F 0.092 -0.041 -18° 07' 13.80" 1.000E-01 0.500 F 0.109 -0.298 21.9 V 0.70 0.97 c 691 0.60 Yes Yes
Anza O C 2004-04-21.38144 1.000E-05 15:33:57.320 1.500E-01 0.500 F 0.092 0.058 -17° 15' 12.80" 1.000E-01 0.500 F 0.109 0.106 20.5 V 0.70 0.24 c 691 0.24 Yes Yes
2004KE1 O C 2004-04-21.40916 1.000E-05 15:33:57.630 1.500E-01 0.500 F 0.092 0.377 -18° 07' 19.40" 1.000E-01 0.500 F 0.109 0.337 21.5 V 0.70 0.57 c 691 1.02 Yes Yes
Anza O C 2004-04-21.40916 1.000E-05 15:33:55.810 1.500E-01 0.500 F 0.092 0.375 -17° 15' 05.30" 1.000E-01 0.500 F 0.109 -0.203 20.8 V 0.70 0.54 c 691 0.85 Yes Yes
2004JW6 O C 2004-04-21.43300 1.000E-05 15:35:25.330 1.500E-01 0.500 F 0.349 -0.190 +01° 42' 03.80" 1.000E-01 0.500 F 0.266 -0.165 19.8 V 0.70 0.05 c 691 0.51 Yes Yes
2004JW6 O C 2004-04-21.45073 1.000E-05 15:35:24.720 1.500E-01 0.500 F 0.349 -0.111 +01° 42' 18.70" 1.000E-01 0.500 F 0.266 -0.154 19.9 V 0.70 0.16 c 691 0.38 Yes Yes
2004JW6 O C 2004-04-21.46772 1.000E-05 15:35:24.140 1.500E-01 0.500 F 0.349 -0.003 +01° 42' 32.90" 1.000E-01 0.500 F 0.266 -0.220 19.8 V 0.70 0.06 c 691 0.44 Yes Yes
2004FN18 O C 2004-04-22.31745 1.000E-05 14:43:08.790 1.500E-01 0.500 F 0.337 -0.224 -13° 50' 16.40" 1.000E-01 0.500 F 0.157 -0.186 19.7 V 0.70 0.37 c 691 0.59 Yes Yes
2001PF14 O C 2004-04-22.32526 1.000E-05 14:55:01.110 1.500E-01 0.500 F 0.285 0.030 -16° 24' 06.90" 1.000E-01 0.500 F 0.208 -0.173 20.3 V 0.70 0.27 c 691 0.37 Yes Yes
2004FN18 O C 2004-04-22.34393 1.000E-05 14:43:06.350 1.500E-01 0.500 F 0.337 -0.154 -13° 49' 45.20" 1.000E-01 0.500 F 0.157 -0.396 19.8 V 0.70 0.47 c 691 0.85 Yes Yes
2001PF14 O C 2004-04-22.35180 1.000E-05 14:54:59.590 1.500E-01 0.500 F 0.285 -0.242 -16° 24' 16.80" 1.000E-01 0.500 F 0.208 -0.027 20.2 V 0.70 0.17 c 691 0.51 Yes Yes
2004FN18 O C 2004-04-22.37560 1.000E-05 14:43:03.430 1.500E-01 0.500 F 0.337 -0.111 -13° 49' 07.40" 1.000E-01 0.500 F 0.157 -0.229 19.8 V 0.70 0.47 c 691 0.51 Yes Yes
2001PF14 O C 2004-04-22.38384 1.000E-05 14:54:57.780 1.500E-01 0.500 F 0.285 -0.196 -16° 24' 28.90" 1.000E-01 0.500 F 0.208 -0.127 20.5 V 0.70 0.47 c 691 0.48 Yes Yes
2004FA18 O C 2004-04-23.14971 1.000E-05 12:27:54.680 1.500E-01 0.500 F 0.453 -0.736 +02° 25' 18.80" 1.000E-01 0.500 F 0.438 -0.284 19.3 V 0.70 0.27 c 691 1.59 Yes Yes
2004HC33 O C t 2004-04-23.15519 1.000E-05 12:28:19.480 1.500E-01 0.500 F 0.500 -2.158 -00° 35' 27.00" 1.000E-01 0.500 F 0.263 -4.160 19 1.00 -0.73 c 691 8.05 No Yes
2004HA1 O C t 2004-04-23.16326 1.000E-05 12:17:38.930 1.500E-01 0.500 F 0.617 -0.661 -03° 47' 07.50" 1.000E-01 0.500 F 0.205 -0.932 c 691 2.49 Yes No
2003JC13 O C 2004-04-23.16326 1.000E-05 12:21:47.260 1.500E-01 0.500 F 0.490 0.326 -02° 42' 47.90" 1.000E-01 0.500 F 0.296 -0.161 21.1 V 0.70 1.00 c 691 0.73 Yes Yes
2000FO10 O C 2004-04-23.17141 1.000E-05 12:25:20.340 1.500E-01 0.500 F 0.499 -0.052 -04° 48' 09.10" 1.000E-01 0.500 F 0.330 0.093 17.3 V 0.70 0.20 c 691 0.21 Yes Yes
2004FA18 O C 2004-04-23.18151 1.000E-05 12:27:46.060 1.500E-01 0.500 F 0.453 -0.440 +02° 25' 02.00" 1.000E-01 0.500 F 0.438 -0.357 19.2 V 0.70 0.16 c 691 1.14 Yes Yes
2004HC33 O C t 2004-04-23.18762 1.000E-05 12:29:14.020 1.500E-01 0.500 F 0.500 0.915 -00° 19' 19.80" 1.000E-01 0.500 F 0.263 0.549 19 1.00 -0.72 c 691 2.73 Yes Yes
2004HA1 O C t 2004-04-23.19659 1.000E-05 12:17:17.150 1.500E-01 0.500 F 0.617 -0.896 -03° 49' 52.90" 1.000E-01 0.500 F 0.205 -0.957 c 691 2.85 Yes No
2003JC13 O C 2004-04-23.19659 1.000E-05 12:21:43.490 1.500E-01 0.500 F 0.490 -0.312 -02° 41' 53.40" 1.000E-01 0.500 F 0.296 -0.027 20.3 V 0.70 0.20 c 691 0.63 Yes Yes
2000FO10 O C 2004-04-23.20457 1.000E-05 12:25:13.200 1.500E-01 0.500 F 0.499 -0.378 -04° 46' 37.90" 1.000E-01 0.500 F 0.330 -0.030 17.2 V 0.70 0.10 c 691 0.76 Yes Yes
2004FA18 O C 2004-04-23.21018 1.000E-05 12:27:38.250 1.500E-01 0.500 F 0.453 -0.517 +02° 24' 47.10" 1.000E-01 0.500 F 0.438 -0.124 18.9 V 0.70 -0.14 c 691 1.07 Yes Yes
2004HC33 O C t 2004-04-23.21581 1.000E-05 12:30:01.190 1.500E-01 0.500 F 0.538 -1.941 -00° 05' 18.60" 1.000E-01 0.500 F 0.354 -1.973 19 1.00 -0.71 c 691 4.81 No Yes
2003JC13 O C 2004-04-23.22488 1.000E-05 12:21:40.310 1.500E-01 0.500 F 0.490 -0.449 -02° 41' 07.20" 1.000E-01 0.500 F 0.296 0.034 20.6 V 0.70 0.49 c 691 0.91 Yes Yes
2004HA1 O C t 2004-04-23.22488 1.000E-05 12:16:58.710 1.500E-01 0.500 F 0.617 1.013 -03° 52' 13.60" 1.000E-01 0.500 F 0.205 -0.906 c 691 2.87 Yes No
2000FO10 O C 2004-04-23.23377 1.000E-05 12:25:06.940 1.500E-01 0.500 F 0.499 -0.182 -04° 45' 17.40" 1.000E-01 0.500 F 0.330 0.044 17.1 V 0.70 0.00 c 691 0.38 Yes Yes
2018JC3 O C 2004-04-23.25256 1.000E-05 13:56:05.200 1.500E-01 0.500 F 0.215 0.916 -02° 13' 42.70" 1.000E-01 0.500 F 0.293 -0.347 22.0 V 0.70 0.76 c 691 2.02 Yes Yes
2018JC3 O C 2004-04-23.28745 1.000E-05 13:56:02.700 1.500E-01 0.500 F 0.215 -0.373 -02° 13' 18.30" 1.000E-01 0.500 F 0.293 -0.244 21.9 V 0.70 0.66 c 691 0.91 Yes Yes
2018JC3 O C 2004-04-23.31700 1.000E-05 13:56:00.660 1.500E-01 0.500 F 0.215 -0.258 -02° 12' 57.10" 1.000E-01 0.500 F 0.293 0.367 22.3 V 0.70 1.06 c 691 0.92 Yes Yes
Taranis O C 2004-04-23.37045 1.000E-05 14:58:41.690 1.500E-01 0.500 F 0.438 0.226 +03° 05' 06.30" 1.000E-01 0.500 F 0.290 -0.255 19.5 V 0.70 0.14 c 691 0.68 Yes Yes
Taranis O C 2004-04-23.39886 1.000E-05 14:58:40.220 1.500E-01 0.500 F 0.438 0.104 +03° 05' 24.40" 1.000E-01 0.500 F 0.290 -0.153 19.5 V 0.70 0.14 c 691 0.37 Yes Yes
Taranis O C 2004-04-23.43850 1.000E-05 14:58:38.190 1.500E-01 0.500 F 0.438 0.196 +03° 05' 49.40" 1.000E-01 0.500 F 0.290 -0.252 19.4 V 0.70 0.05 c 691 0.64 Yes Yes
Melissabrucker O C 2004-04-24.14138 1.000E-05 11:13:21.210 1.500E-01 0.500 F 0.487 -0.224 +06° 01' 39.60" 1.000E-01 0.500 F 0.462 0.068 18.5 V 0.70 -0.08 c 691 0.47 Yes Yes
2017TV4 O C 2004-04-24.15547 1.000E-05 11:02:22.180 1.500E-01 0.500 F 0.373 -0.120 +00° 27' 12.40" 1.000E-01 0.500 F 0.333 -0.116 21.2 V 0.70 -0.58 c 691 0.34 Yes Yes
Melissabrucker O C 2004-04-24.17293 1.000E-05 11:13:20.670 1.500E-01 0.500 F 0.487 -0.102 +06° 01' 44.10" 1.000E-01 0.500 F 0.462 -0.060 18.4 V 0.70 -0.18 c 691 0.24 Yes Yes
2017TV4 O C 2004-04-24.18604 1.000E-05 11:02:22.690 1.500E-01 0.500 F 0.373 -0.283 +00° 27' 58.90" 1.000E-01 0.500 F 0.333 0.178 21.2 V 0.70 -0.58 c 691 0.68 Yes Yes
Melissabrucker O C 2004-04-24.20841 1.000E-05 11:13:20.050 1.500E-01 0.500 F 0.487 -0.170 +06° 01' 49.70" 1.000E-01 0.500 F 0.462 0.370 18.6 V 0.70 0.02 c 691 0.81 Yes Yes
2017TV4 O C 2004-04-24.22260 1.000E-05 11:02:23.360 1.500E-01 0.500 F 0.373 0.377 +00° 28' 54.20" 1.000E-01 0.500 F 0.333 0.288 21.7 V 0.70 -0.08 c 691 0.97 Yes Yes
2007PA8 O C 2004-04-24.28555 1.000E-05 14:27:11.500 1.500E-01 0.500 F 0.407 0.119 -11° 41' 10.40" 1.000E-01 0.500 F 0.313 -0.177 21.5 V 0.70 0.48 c 691 0.43 Yes Yes
2007PA8 O C 2004-04-24.32145 1.000E-05 14:27:09.270 1.500E-01 0.500 F 0.407 0.013 -11° 40' 59.70" 1.000E-01 0.500 F 0.313 -0.355 21.4 V 0.70 0.38 c 691 0.71 Yes Yes
2007PA8 O C 2004-04-24.37970 1.000E-05 14:27:05.640 1.500E-01 0.500 F 0.407 -0.352 -11° 40' 41.60" 1.000E-01 0.500 F 0.313 0.028 21.7 V 0.70 0.68 c 691 0.70 Yes Yes
2004HR56 O C 2004-04-25.33668 1.000E-05 15:00:22.760 1.500E-01 0.500 F 0.294 -0.158 -15° 10' 25.80" 1.000E-01 0.500 F 0.116 -0.032 21.0 V 0.70 -0.35 c 691 0.49 Yes Yes
2004HR56 O C 2004-04-25.36461 1.000E-05 15:00:17.580 1.500E-01 0.500 F 0.294 0.092 -15° 10' 47.90" 1.000E-01 0.500 F 0.116 -0.105 21.3 V 0.70 -0.05 c 691 0.33 Yes Yes
2004HR56 O C 2004-04-25.39180 1.000E-05 15:00:12.530 1.500E-01 0.500 F 0.294 0.034 -15° 11' 08.70" 1.000E-01 0.500 F 0.116 0.267 21.5 V 0.70 0.15 c 691 0.63 Yes Yes
2004FA18 O C 2004-04-28.16308 1.000E-05 12:06:12.310 1.500E-01 0.500 F 0.456 0.131 +01° 35' 11.90" 1.000E-01 0.500 F 0.561 -0.171 19.4 V 0.70 0.21 c 691 0.44 Yes Yes
2004FE31 O C 2004-04-28.17378 1.000E-05 12:01:32.890 1.500E-01 0.500 F 0.479 -0.808 -01° 30' 29.00" 1.000E-01 0.500 F 0.300 -0.127 21.7 V 0.70 0.82 c 691 1.64 Yes Yes
2000FO10 O C 2004-04-28.17649 1.000E-05 12:09:25.960 1.500E-01 0.500 F 0.559 -0.128 -01° 10' 31.30" 1.000E-01 0.500 F 0.316 0.030 17.0 V 0.70 -0.40 c 691 0.26 Yes Yes
2004FA18 O C 2004-04-28.21576 1.000E-05 12:05:58.570 1.500E-01 0.500 F 0.456 0.041 +01° 34' 36.60" 1.000E-01 0.500 F 0.561 -0.270 19.2 V 0.70 0.01 c 691 0.55 Yes Yes
2004FE31 O C 2004-04-28.22638 1.000E-05 12:01:30.000 1.500E-01 0.500 F 0.479 0.366 -01° 29' 48.90" 1.000E-01 0.500 F 0.300 -0.001 21.6 V 0.70 0.71 c 691 0.73 Yes Yes
2000FO10 O C 2004-04-28.22912 1.000E-05 12:09:16.410 1.500E-01 0.500 F 0.559 -0.181 -01° 08' 22.70" 1.000E-01 0.500 F 0.316 0.078 17.2 V 0.70 -0.20 c 691 0.40 Yes Yes
2004FA18 O C 2004-04-28.28275 1.000E-05 12:05:41.090 1.500E-01 0.500 F 0.456 -0.544 +01° 33' 51.70" 1.000E-01 0.500 F 0.561 -0.224 19.7 V 0.70 0.51 c 691 1.19 Yes Yes
2004FE31 O C 2004-04-28.30057 1.000E-05 12:01:25.790 1.500E-01 0.500 F 0.479 -0.303 -01° 28' 53.10" 1.000E-01 0.500 F 0.300 -0.537 21.1 V 0.70 0.21 c 691 1.23 Yes Yes
2000FO10 O C 2004-04-28.30461 1.000E-05 12:09:02.790 1.500E-01 0.500 F 0.559 -0.076 -01° 05' 18.50" 1.000E-01 0.500 F 0.316 0.161 17.1 V 0.70 -0.31 c 691 0.36 Yes Yes
Anza O C 2004-04-28.33421 1.000E-05 15:27:11.090 1.500E-01 0.500 F 0.163 0.059 -16° 40' 08.20" 1.000E-01 0.500 F 0.390 -0.089 20.7 V 0.70 0.69 c 691 0.21 Yes Yes
2004KE1 O C 2004-04-28.33986 1.000E-05 15:27:05.480 1.500E-01 0.500 F 0.029 0.170 -18° 33' 15.60" 1.000E-01 0.500 F 0.017 0.128 20.9 V 0.70 0.43 c 691 0.43 Yes Yes
Anza O C 2004-04-28.36164 1.000E-05 15:27:09.290 1.500E-01 0.500 F 0.163 -0.120 -16° 39' 59.50" 1.000E-01 0.500 F 0.390 -0.265 20.4 V 0.70 0.39 c 691 0.58 Yes Yes
2004KE1 O C 2004-04-28.36686 1.000E-05 15:27:03.200 1.500E-01 0.500 F 0.029 0.090 -18° 33' 21.40" 1.000E-01 0.500 F 0.017 0.219 20.8 V 0.70 0.33 c 691 0.48 Yes Yes
Anza O C 2004-04-28.39415 1.000E-05 15:27:07.180 1.500E-01 0.500 F 0.163 0.008 -16° 39' 48.70" 1.000E-01 0.500 F 0.390 -0.041 20.3 V 0.70 0.29 c 691 0.08 Yes Yes
2004KE1 O C 2004-04-28.40012 1.000E-05 15:27:00.370 1.500E-01 0.500 F 0.029 -0.349 -18° 33' 28.50" 1.000E-01 0.500 F 0.017 0.077 20.8 V 0.70 0.34 c 691 0.73 Yes Yes
2004JB O C H 2004-05-02.42748 1.000E-05 16:23:11.140 1.500E-01 0.500 F 0.360 0.488 -05° 39' 04.20" 1.000E-01 0.500 F 0.271 -1.093 c 691 2.55 Yes No
2004JB O C H 2004-05-02.43031 1.000E-05 16:23:11.130 1.500E-01 0.500 F 0.360 0.766 -05° 39' 18.20" 1.000E-01 0.500 F 0.271 -2.649 c 691 5.21 No No
2004JB O C t 2004-05-02.45424 1.000E-05 16:23:10.880 1.500E-01 0.500 F 0.360 0.505 -05° 41' 01.30" 1.000E-01 0.500 F 0.271 -0.572 c 691 1.63 Yes No
2004JB O C t 2004-05-02.45692 1.000E-05 16:23:10.840 1.500E-01 0.500 F 0.360 0.278 -05° 41' 12.80" 1.000E-01 0.500 F 0.271 -0.298 c 691 0.87 Yes No
2004JN2 O C 2004-05-09.27394 1.000E-05 14:48:27.910 1.500E-01 0.500 F 0.276 0.296 -17° 15' 22.50" 1.000E-01 0.500 F 0.200 -0.015 20.7 V 0.70 -0.17 c 691 0.61 Yes Yes
2004JN2 O C 2004-05-09.30186 1.000E-05 14:48:23.170 1.500E-01 0.500 F 0.276 -0.453 -17° 14' 38.30" 1.000E-01 0.500 F 0.200 0.298 21.6 V 0.70 0.72 c 691 1.11 Yes Yes
2004JN2 O C 2004-05-09.33060 1.000E-05 14:48:18.380 1.500E-01 0.500 F 0.276 0.022 -17° 13' 53.60" 1.000E-01 0.500 F 0.200 -0.283 21.6 V 0.70 0.72 c 691 0.57 Yes Yes
2004JU20 O C 2004-05-13.27859 1.000E-05 15:19:33.590 1.500E-01 0.500 F -0.023 -0.148 -18° 31' 01.40" 1.000E-01 0.500 F 0.091 -0.110 21.4 V 0.70 0.05 c 691 0.45 Yes Yes
2004JU20 O C 2004-05-13.31110 1.000E-05 15:19:33.160 1.500E-01 0.500 F -0.023 -0.115 -18° 32' 31.20" 1.000E-01 0.500 F 0.091 0.077 21.5 V 0.70 0.15 c 691 0.33 Yes Yes
2004JU20 O C 2004-05-13.33955 1.000E-05 15:19:32.800 1.500E-01 0.500 F -0.023 0.098 -18° 33' 49.30" 1.000E-01 0.500 F 0.091 0.031 21.4 V 0.70 0.04 c 691 0.36 Yes Yes
2004JP12 O C t 2004-05-13.36317 1.000E-05 15:46:57.790 1.500E-01 0.500 F 0.399 -0.676 +09° 19' 38.50" 1.000E-01 0.500 F 0.281 -0.291 19 1.00 -1.42 c 691 1.86 Yes Yes
2004JP12 O C t 2004-05-13.39436 1.000E-05 15:46:36.060 1.500E-01 0.500 F 0.399 0.709 +09° 15' 22.10" 1.000E-01 0.500 F 0.281 -0.243 c 691 1.72 Yes No
2004JP12 O C t 2004-05-13.42462 1.000E-05 15:46:15.160 1.500E-01 0.500 F 0.371 0.465 +09° 11' 15.10" 1.000E-01 0.500 F 0.275 -0.159 c 691 1.21 Yes No
2005EE O C H 2004-05-14.31920 1.000E-05 15:23:49.460 1.500E-01 0.500 F 0.527 0.166 -01° 31' 10.80" 1.000E-01 0.500 F 0.202 -0.985 c 691 2.03 Yes No
1991RJ2 O C 2004-05-14.32200 1.000E-05 15:35:02.040 1.500E-01 0.500 F 0.257 -0.160 -01° 05' 57.40" 1.000E-01 0.500 F 0.263 -0.024 20.2 V 0.70 -0.16 c 691 0.33 Yes Yes
2005EE O C H 2004-05-14.34712 1.000E-05 15:23:44.980 1.500E-01 0.500 F 0.527 -0.055 -01° 30' 58.80" 1.000E-01 0.500 F 0.202 -0.306 c 691 0.63 Yes No
1991RJ2 O C 2004-05-14.35013 1.000E-05 15:35:00.150 1.500E-01 0.500 F 0.257 -0.082 -01° 05' 36.90" 1.000E-01 0.500 F 0.263 -0.046 20.2 V 0.70 -0.16 c 691 0.19 Yes Yes
2005EE O C H 2004-05-14.38734 1.000E-05 15:23:38.570 1.500E-01 0.500 F 0.527 0.057 -01° 30' 43.00" 1.000E-01 0.500 F 0.202 -0.807 c 691 1.64 Yes No
1991RJ2 O C 2004-05-14.38992 1.000E-05 15:34:57.480 1.500E-01 0.500 F 0.257 -0.023 -01° 05' 07.80" 1.000E-01 0.500 F 0.263 0.029 20.3 V 0.70 -0.06 c 691 0.07 Yes Yes
2004JO12 O C t 2004-05-14.41885 1.000E-05 16:21:24.420 1.500E-01 0.500 F 0.253 0.551 +07° 01' 44.80" 1.000E-01 0.500 F 0.325 -0.660 17 V 1.00 -0.72 c 691 1.97 Yes Yes
2004JO12 O C t 2004-05-14.44382 1.000E-05 16:21:41.200 1.500E-01 0.500 F 0.253 0.704 +07° 17' 29.50" 1.000E-01 0.500 F 0.325 1.172 c 691 3.11 Yes No
2004JO12 O C t 2004-05-14.46089 1.000E-05 16:21:52.650 1.500E-01 0.500 F 0.253 -0.882 +07° 28' 10.20" 1.000E-01 0.500 F 0.325 -0.563 c 691 2.43 Yes No
1988XB O C 2004-05-19.15061 1.000E-05 13:21:03.620 1.500E-01 0.500 F 0.418 -0.317 -04° 37' 47.70" 1.000E-01 0.500 F 0.144 0.043 19.3 V 0.70 -0.12 c 691 0.63 Yes Yes
1988XB O C 2004-05-19.17704 1.000E-05 13:21:00.830 1.500E-01 0.500 F 0.418 -0.103 -04° 37' 37.40" 1.000E-01 0.500 F 0.144 -0.003 19.3 V 0.70 -0.12 c 691 0.20 Yes Yes
1988XB O C 2004-05-19.20347 1.000E-05 13:20:58.030 1.500E-01 0.500 F 0.418 -0.010 -04° 37' 27.00" 1.000E-01 0.500 F 0.144 0.041 19.2 V 0.70 -0.22 c 691 0.08 Yes Yes
Tanith O C 2004-05-19.23578 1.000E-05 14:47:32.590 1.500E-01 0.500 F 0.466 -0.060 -14° 15' 02.30" 1.000E-01 0.500 F 0.245 -0.081 19.9 V 0.70 0.42 c 691 0.20 Yes Yes
2004KE1 O C 2004-05-19.25145 1.000E-05 14:49:33.650 1.500E-01 0.500 F -0.026 0.070 -19° 38' 59.80" 1.000E-01 0.500 F 0.032 -0.071 20.4 V 0.70 0.60 c 691 0.21 Yes Yes
Tanith O C 2004-05-19.26231 1.000E-05 14:47:30.800 1.500E-01 0.500 F 0.466 0.021 -14° 14' 38.00" 1.000E-01 0.500 F 0.245 0.005 19.6 V 0.70 0.12 c 691 0.04 Yes Yes
2004KE1 O C 2004-05-19.27802 1.000E-05 14:49:29.880 1.500E-01 0.500 F 0.023 -0.106 -19° 39' 03.70" 1.000E-01 0.500 F -0.043 0.263 20.0 V 0.70 0.20 c 691 0.58 Yes Yes
Tanith O C 2004-05-19.28887 1.000E-05 14:47:28.990 1.500E-01 0.500 F 0.466 -0.171 -14° 14' 13.70" 1.000E-01 0.500 F 0.245 0.027 19.6 V 0.70 0.11 c 691 0.35 Yes Yes
2004KE1 O C 2004-05-19.30460 1.000E-05 14:49:26.110 1.500E-01 0.500 F 0.023 -0.257 -19° 39' 07.70" 1.000E-01 0.500 F -0.043 0.142 19.7 V 0.70 -0.11 c 691 0.61 Yes Yes
1991RJ2 O C 2004-05-19.31562 1.000E-05 15:29:34.910 1.500E-01 0.500 F 0.162 0.199 -00° 07' 28.60" 1.000E-01 0.500 F 0.223 -0.195 20.3 V 0.70 -0.02 c 691 0.56 Yes Yes
1991RJ2 O C 2004-05-19.34196 1.000E-05 15:29:33.030 1.500E-01 0.500 F 0.162 0.032 -00° 07' 10.90" 1.000E-01 0.500 F 0.223 -0.185 20.4 V 0.70 0.08 c 691 0.38 Yes Yes
1991RJ2 O C 2004-05-19.36814 1.000E-05 15:29:31.170 1.500E-01 0.500 F 0.162 -0.073 -00° 06' 53.00" 1.000E-01 0.500 F 0.223 0.141 20.0 V 0.70 -0.32 c 691 0.32 Yes Yes
2004KE1 O C 2004-05-20.25327 1.000E-05 14:47:25.060 1.500E-01 0.500 F -0.047 -0.220 -19° 41' 34.10" 1.000E-01 0.500 F 0.078 0.031 20.0 V 0.70 0.17 c 691 0.46 Yes Yes
2004KE1 O C 2004-05-20.25581 1.000E-05 14:47:24.700 1.500E-01 0.500 F -0.047 -0.224 -19° 41' 34.60" 1.000E-01 0.500 F 0.078 -0.070 20.2 V 0.70 0.37 c 691 0.48 Yes Yes
2004KE1 O C 2004-05-20.25840 1.000E-05 14:47:24.330 1.500E-01 0.500 F -0.047 -0.269 -19° 41' 35.00" 1.000E-01 0.500 F 0.078 -0.065 20.2 V 0.70 0.37 c 691 0.57 Yes Yes
2004KN10 O C 2004-05-21.16431 1.000E-05 13:41:49.940 1.500E-01 0.791 F 0.506 -0.230 -08° 25' 41.30" 1.000E-01 0.791 F 0.275 0.658 20.9 V 0.70 0.09 c 691 0.92 Yes Yes
2001RM O C 2004-05-21.17805 1.000E-05 13:45:43.690 1.500E-01 0.500 F 0.490 -0.055 -12° 39' 37.60" 1.000E-01 0.500 F 0.382 -0.009 18.7 V 0.70 -0.18 c 691 0.11 Yes Yes
2004KN10 O C 2004-05-21.19128 1.000E-05 13:41:55.730 1.500E-01 0.791 F 0.506 -0.073 -08° 24' 19.70" 1.000E-01 0.791 F 0.275 0.647 21.3 V 0.70 0.50 c 691 0.85 Yes Yes
2001RM O C 2004-05-21.20436 1.000E-05 13:45:42.120 1.500E-01 0.500 F 0.490 -0.245 -12° 39' 02.80" 1.000E-01 0.500 F 0.382 0.117 18.8 V 0.70 -0.08 c 691 0.54 Yes Yes
2004KN10 O C 2004-05-21.21763 1.000E-05 13:42:01.370 1.500E-01 0.791 F 0.506 -0.022 -08° 23' 00.00" 1.000E-01 0.791 F 0.275 0.337 20.6 V 0.70 -0.20 c 691 0.44 Yes Yes
2001RM O C 2004-05-21.23058 1.000E-05 13:45:40.570 1.500E-01 0.500 F 0.490 -0.223 -12° 38' 28.30" 1.000E-01 0.500 F 0.382 0.035 18.7 V 0.70 -0.18 c 691 0.45 Yes Yes
2004KN10 O C t 2004-05-21.30012 1.000E-05 13:42:19.240 1.500E-01 0.791 F 0.506 1.444 -08° 18' 48.20" 1.000E-01 0.791 F 0.275 -0.078 c 691 1.89 Yes No
2004KN10 O C t 2004-05-21.30970 1.000E-05 13:42:21.240 1.500E-01 0.791 F 0.506 0.078 -08° 18' 18.80" 1.000E-01 0.791 F 0.275 -0.130 c 691 0.20 Yes No
2004KN10 O C t 2004-05-21.31228 1.000E-05 13:42:21.850 1.500E-01 0.791 F 0.506 0.748 -08° 18' 10.50" 1.000E-01 0.791 F 0.275 0.233 c 691 1.02 Yes No
2004KN10 O C t 2004-05-21.31486 1.000E-05 13:42:22.400 1.500E-01 0.791 F 0.506 0.519 -08° 18' 02.80" 1.000E-01 0.791 F 0.275 -0.006 c 691 0.68 Yes No
2004KN10 O C t 2004-05-21.31745 1.000E-05 13:42:22.900 1.500E-01 0.791 F 0.506 -0.495 -08° 17' 56.30" 1.000E-01 0.791 F 0.275 -1.478 c 691 2.04 Yes No
2004KN10 O C t 2004-05-21.31996 1.000E-05 13:42:23.460 1.500E-01 0.791 F 0.506 -0.367 -08° 17' 47.60" 1.000E-01 0.791 F 0.275 -0.507 c 691 0.82 Yes No
2004KN10 O C t 2004-05-21.32254 1.000E-05 13:42:24.070 1.500E-01 0.791 F 0.506 0.265 -08° 17' 39.40" 1.000E-01 0.791 F 0.275 -0.252 c 691 0.48 Yes No
2004JW20 O C 2004-05-23.24136 1.000E-05 14:13:41.490 1.500E-01 0.500 F 0.429 -0.105 -12° 38' 51.90" 1.000E-01 0.500 F 0.328 -0.217 19.5 V 0.70 -0.43 c 691 0.49 Yes Yes
2005YW55 O C 2004-05-23.24967 1.000E-05 14:10:34.480 1.500E-01 0.500 F 0.534 -0.076 -16° 02' 40.60" 1.000E-01 0.500 F 0.302 0.514 20.7 V 0.70 0.58 c 691 1.06 Yes Yes
2004JW20 O C 2004-05-23.26900 1.000E-05 14:13:38.030 1.500E-01 0.500 F 0.429 0.149 -12° 37' 46.50" 1.000E-01 0.500 F 0.328 -0.071 19.8 V 0.70 -0.13 c 691 0.34 Yes Yes
2005YW55 O C 2004-05-23.27704 1.000E-05 14:10:33.910 1.500E-01 0.500 F 0.534 0.051 -16° 02' 17.00" 1.000E-01 0.500 F 0.302 -0.217 20.5 V 0.70 0.38 c 691 0.45 Yes Yes
2004JW20 O C 2004-05-23.30099 1.000E-05 14:13:34.030 1.500E-01 0.500 F 0.429 0.158 -12° 36' 31.00" 1.000E-01 0.500 F 0.328 -0.143 19.9 V 0.70 -0.04 c 691 0.44 Yes Yes
2005YW55 O C 2004-05-23.30929 1.000E-05 14:10:33.220 1.500E-01 0.500 F 0.534 -0.239 -16° 01' 48.40" 1.000E-01 0.500 F 0.302 -0.383 20.2 V 0.70 0.08 c 691 0.92 Yes Yes
2004KZ14 O C 2004-05-23.33259 1.000E-05 16:18:06.260 1.500E-01 0.500 F 0.163 -0.098 -02° 22' 08.70" 1.000E-01 0.500 F 0.569 -0.083 21.5 V 0.70 1.38 c 691 0.26 Yes Yes
2004KZ14 O C 2004-05-23.36024 1.000E-05 16:18:03.700 1.500E-01 0.500 F 0.163 0.246 -02° 21' 55.70" 1.000E-01 0.500 F 0.569 -0.017 21.1 V 0.70 0.98 c 691 0.50 Yes Yes
2004KZ14 O C 2004-05-23.38780 1.000E-05 16:18:01.130 1.500E-01 0.500 F 0.163 0.151 -02° 21' 42.90" 1.000E-01 0.500 F 0.569 -0.102 21.4 V 0.70 1.28 c 691 0.37 Yes Yes
2004KG17 O C t 2004-05-28.40941 1.000E-05 16:59:52.710 1.500E-01 0.500 F 0.293 -0.901 -00° 42' 42.70" 1.000E-01 0.500 F 0.395 -0.277 20 V 1.00 1.34 c 691 2.52 Yes Yes
2004KG17 O C t 2004-05-28.43930 1.000E-05 17:01:08.030 1.500E-01 0.500 F 0.288 0.930 -00° 45' 20.60" 1.000E-01 0.500 F 0.307 0.317 20 V 1.00 1.34 c 691 2.85 Yes Yes
2001RM O C 2004-05-29.17610 1.000E-05 13:39:05.840 1.500E-01 0.500 F 0.523 -0.229 -09° 49' 41.00" 1.000E-01 0.500 F 0.277 0.285 18.9 V 0.70 -0.11 c 691 0.73 Yes Yes
2001RM O C 2004-05-29.20810 1.000E-05 13:39:04.420 1.500E-01 0.500 F 0.523 -0.145 -09° 49' 02.10" 1.000E-01 0.500 F 0.277 0.110 19.0 V 0.70 -0.01 c 691 0.36 Yes Yes
2001RM O C 2004-05-29.23977 1.000E-05 13:39:03.010 1.500E-01 0.500 F 0.523 -0.180 -09° 48' 23.40" 1.000E-01 0.500 F 0.277 0.117 19.0 V 0.70 -0.01 c 691 0.43 Yes Yes
Verenia O C 2004-06-12.23639 1.000E-05 16:21:50.360 1.500E-01 0.500 F 0.315 -0.008 -02° 49' 51.70" 1.000E-01 0.500 F 0.518 -0.108 19.2 V 0.70 0.27 c 691 0.22 Yes Yes
Verenia O C 2004-06-12.26417 1.000E-05 16:21:47.960 1.500E-01 0.500 F 0.315 0.122 -02° 49' 44.30" 1.000E-01 0.500 F 0.518 -0.205 19.2 V 0.70 0.27 c 691 0.48 Yes Yes
Verenia O C 2004-06-12.32634 1.000E-05 16:21:42.580 1.500E-01 0.500 F 0.315 0.220 -02° 49' 27.50" 1.000E-01 0.500 F 0.518 -0.178 19.2 V 0.70 0.27 c 691 0.57 Yes Yes
2002LY45 O C 2004-06-13.26034 1.000E-05 16:12:46.220 1.500E-01 0.500 F 0.093 -0.018 -03° 27' 24.60" 1.000E-01 0.500 F 0.453 -0.034 19.6 V 0.70 0.09 c 691 0.08 Yes Yes
2002LY45 O C 2004-06-13.28817 1.000E-05 16:12:41.610 1.500E-01 0.500 F 0.093 -0.123 -03° 27' 10.30" 1.000E-01 0.500 F 0.453 -0.061 19.7 V 0.70 0.19 c 691 0.27 Yes Yes
2002LY45 O C 2004-06-13.31575 1.000E-05 16:12:37.070 1.500E-01 0.500 F 0.093 0.164 -03° 26' 56.10" 1.000E-01 0.500 F 0.453 -0.064 19.7 V 0.70 0.19 c 691 0.35 Yes Yes
2004LA6 O C 2004-06-13.34801 1.000E-05 16:54:54.310 1.500E-01 0.500 F 0.264 0.005 +04° 08' 07.90" 1.000E-01 0.500 F 0.154 0.032 20.6 V 0.70 0.25 c 691 0.07 Yes Yes
2004LA6 O C 2004-06-13.37576 1.000E-05 16:54:52.830 1.500E-01 0.500 F 0.264 0.125 +04° 10' 26.50" 1.000E-01 0.500 F 0.154 -0.356 20.3 V 0.70 -0.05 c 691 0.78 Yes Yes
2004LA6 O C 2004-06-13.40271 1.000E-05 16:54:51.400 1.500E-01 0.500 F 0.264 -0.104 +04° 12' 41.30" 1.000E-01 0.500 F 0.154 -0.489 20.4 V 0.70 0.05 c 691 1.04 Yes Yes
2004LA6 O C 2004-06-14.23149 1.000E-05 16:54:18.250 1.500E-01 0.500 F 0.307 0.006 +05° 22' 01.80" 1.000E-01 0.500 F 0.219 0.464 20.7 V 0.70 0.33 c 691 0.95 Yes Yes
2004LA6 O C 2004-06-14.23431 1.000E-05 16:54:18.090 1.500E-01 0.500 F 0.307 -0.103 +05° 22' 15.90" 1.000E-01 0.500 F 0.219 0.391 20.7 V 0.70 0.33 c 691 0.83 Yes Yes
2004LA6 O C 2004-06-14.23710 1.000E-05 16:54:17.950 1.500E-01 0.500 F 0.307 0.065 +05° 22' 29.50" 1.000E-01 0.500 F 0.219 -0.031 20.3 V 0.70 -0.07 c 691 0.15 Yes Yes
2004KZ14 O C 2004-06-14.26056 1.000E-05 15:55:47.020 1.500E-01 0.500 F 0.518 -0.089 -01° 48' 48.90" 1.000E-01 0.500 F 0.545 -0.171 20.5 V 0.70 -0.63 c 691 0.39 Yes Yes
2004LA10 O C t 2004-06-14.26582 1.000E-05 15:54:00.150 1.500E-01 0.500 F 0.227 -0.914 -02° 39' 35.10" 1.000E-01 0.500 F 0.528 -0.286 c 691 2.06 Yes No
2004KZ14 O C 2004-06-14.28749 1.000E-05 15:55:45.970 1.500E-01 0.500 F 0.518 -0.496 -01° 48' 54.40" 1.000E-01 0.500 F 0.545 0.206 20.5 V 0.70 -0.63 c 691 1.09 Yes Yes
2004LA10 O C t 2004-06-14.29679 1.000E-05 15:54:19.020 1.500E-01 0.500 F 0.227 0.919 -02° 39' 05.50" 1.000E-01 0.500 F 0.528 -0.714 c 691 2.49 Yes No
2004KZ14 O C 2004-06-14.31829 1.000E-05 15:55:44.830 1.500E-01 0.500 F 0.518 -0.224 -01° 49' 01.50" 1.000E-01 0.500 F 0.545 -0.169 20.6 V 0.70 -0.54 c 691 0.57 Yes Yes
2004LA10 O C t 2004-06-14.32372 1.000E-05 15:54:35.560 1.500E-01 0.500 F 0.227 2.227 -02° 38' 39.00" 1.000E-01 0.500 F 0.528 -0.575 c 691 4.26 No No
2004OB O C 2004-06-14.35881 1.000E-05 20:35:44.910 1.500E-01 0.500 F 0.037 -0.168 -11° 28' 23.20" 1.000E-01 0.500 F 0.415 0.081 20.9 V 0.70 0.25 c 691 0.37 Yes Yes
2004OB O C 2004-06-14.38606 1.000E-05 20:35:45.360 1.500E-01 0.500 F 0.037 0.088 -11° 28' 14.80" 1.000E-01 0.500 F 0.415 -0.045 20.7 V 0.70 0.05 c 691 0.20 Yes Yes
2004OB O C 2004-06-14.41318 1.000E-05 20:35:45.790 1.500E-01 0.500 F 0.037 0.192 -11° 28' 06.20" 1.000E-01 0.500 F 0.415 0.023 20.4 V 0.70 -0.25 c 691 0.39 Yes Yes
2005AN26 O C H 2004-06-15.35877 1.000E-05 20:12:22.810 1.500E-01 0.500 F -0.139 0.187 -08° 40' 18.80" 1.000E-01 0.500 F 0.521 -0.503 c 691 1.08 Yes No
2005AN26 O C H 2004-06-15.38722 1.000E-05 20:12:23.470 1.500E-01 0.500 F -0.139 -0.028 -08° 40' 01.60" 1.000E-01 0.500 F 0.521 -0.356 c 691 0.73 Yes No
2005AN26 O C H 2004-06-15.41446 1.000E-05 20:12:24.130 1.500E-01 0.500 F -0.139 0.263 -08° 39' 45.30" 1.000E-01 0.500 F 0.521 -0.435 c 691 1.04 Yes No
2004BE86 O C 2004-06-16.16339 1.000E-05 15:09:36.000 1.500E-01 0.500 F 0.356 -0.344 -04° 19' 23.00" 1.000E-01 0.500 F 0.301 -0.433 21.3 V 0.70 0.54 c 691 1.12 Yes Yes
2004BE86 O C 2004-06-16.19107 1.000E-05 15:09:36.980 1.500E-01 0.500 F 0.356 -0.198 -04° 19' 48.70" 1.000E-01 0.500 F 0.301 0.184 20.7 V 0.70 -0.06 c 691 0.54 Yes Yes
2004BE86 O C 2004-06-16.21863 1.000E-05 15:09:37.940 1.500E-01 0.500 F 0.356 -0.256 -04° 20' 15.10" 1.000E-01 0.500 F 0.301 -0.059 20.8 V 0.70 0.04 c 691 0.53 Yes Yes
2004MO1 O C t 2004-06-17.16131 1.000E-05 15:10:39.210 1.500E-01 0.500 F 0.285 -0.284 -13° 42' 51.20" 1.000E-01 0.500 F 0.274 2.275 19 V 1.00 c 691 0.00 Yes Yes
2004MO1 O C t 2004-06-17.18921 1.000E-05 15:09:50.620 1.500E-01 0.500 F 0.285 0.404 -13° 58' 37.70" 1.000E-01 0.500 F 0.274 -0.323 c 691 0.00 Yes No
2004MO1 O C t 2004-06-17.21615 1.000E-05 15:09:03.490 1.500E-01 0.500 F 0.275 -0.436 -14° 13' 49.60" 1.000E-01 0.500 F 0.252 -2.157 c 691 0.00 Yes No
2007AS12 O C 2004-06-17.35652 1.000E-05 20:28:23.650 1.500E-01 0.500 F 0.111 0.255 +01° 47' 44.10" 1.000E-01 0.500 F 0.345 -0.044 20.6 V 0.70 -0.04 c 691 0.53 Yes Yes
2007AS12 O C 2004-06-17.38431 1.000E-05 20:28:23.740 1.500E-01 0.500 F 0.111 -0.043 +01° 47' 31.50" 1.000E-01 0.500 F 0.345 0.096 20.4 V 0.70 -0.24 c 691 0.21 Yes Yes
2007AS12 O C 2004-06-17.41216 1.000E-05 20:28:23.850 1.500E-01 0.500 F 0.111 0.067 +01° 47' 18.70" 1.000E-01 0.500 F 0.345 0.106 20.3 V 0.70 -0.34 c 691 0.26 Yes Yes
2004MO1 O C t 2004-06-18.15979 1.000E-05 14:41:25.110 1.500E-01 0.707 F 0.040 -0.439 -22° 49' 10.00" 1.000E-01 0.707 F 0.064 0.313 c 691 0.00 Yes No
2004MO1 O C t 2004-06-18.17000 1.000E-05 14:41:06.370 1.500E-01 0.707 F 0.121 0.251 -22° 54' 29.70" 1.000E-01 0.707 F 0.149 0.399 c 691 0.00 Yes No
2004MO1 O C t 2004-06-18.17685 1.000E-05 14:40:53.810 1.500E-01 0.707 F 0.121 1.021 -22° 58' 04.40" 1.000E-01 0.707 F 0.149 -0.007 c 691 0.00 Yes No
2004MO1 O C t 2004-06-18.17996 1.000E-05 14:40:48.020 1.500E-01 0.707 F 0.121 0.178 -22° 59' 42.00" 1.000E-01 0.707 F 0.149 -0.397 c 691 0.00 Yes No
2004MO1 O C t 2004-06-18.18318 1.000E-05 14:40:41.970 1.500E-01 0.707 F 0.121 -1.447 -23° 01' 23.50" 1.000E-01 0.707 F 0.149 -1.304 c 691 0.00 Yes No
2004MO1 O C t 2004-06-18.19067 1.000E-05 14:40:28.280 1.500E-01 0.707 F 0.121 0.096 -23° 05' 15.20" 1.000E-01 0.707 F 0.149 0.769 c 691 0.00 Yes No
2004MO1 O C t 2004-06-18.19364 1.000E-05 14:40:22.930 1.500E-01 0.707 F 0.121 1.802 -23° 06' 47.40" 1.000E-01 0.707 F 0.149 1.183 c 691 0.00 Yes No
2004MO1 O C t 2004-06-18.20042 1.000E-05 14:40:10.330 1.500E-01 0.707 F 0.121 0.382 -23° 10' 19.60" 1.000E-01 0.707 F 0.149 0.225 c 691 0.00 Yes No
2004MO1 O C t 2004-06-19.16557 1.000E-05 14:10:47.510 1.500E-01 0.500 F 0.049 -1.364 -30° 55' 42.00" 1.000E-01 0.500 F -0.033 -2.583 c 691 0.00 Yes No
2004MO1 O C t 2004-06-19.17604 1.000E-05 14:10:27.630 1.500E-01 0.500 F 0.049 -3.732 -31° 00' 18.40" 1.000E-01 0.500 F -0.033 -2.587 c 691 0.00 Yes No
2004MV2 O C t 2004-06-19.24228 1.000E-05 16:16:44.560 1.500E-01 0.500 F 0.321 0.443 -00° 27' 07.80" 1.000E-01 0.500 F 0.363 -0.699 19 V 1.00 -1.22 c 691 2.27 Yes Yes
Verenia O C 2004-06-19.24515 1.000E-05 16:12:19.160 1.500E-01 0.500 F 0.240 -0.136 -02° 25' 02.80" 1.000E-01 0.500 F 0.396 -0.095 19.1 V 0.70 0.12 c 691 0.33 Yes Yes
2004MV2 O C t 2004-06-19.27000 1.000E-05 16:16:54.180 1.500E-01 0.500 F 0.321 -0.176 -00° 30' 42.90" 1.000E-01 0.500 F 0.363 0.616 c 691 1.68 Yes No
Verenia O C 2004-06-19.27278 1.000E-05 16:12:16.900 1.500E-01 0.500 F 0.240 -0.259 -02° 24' 58.60" 1.000E-01 0.500 F 0.396 -0.102 19.1 V 0.70 0.12 c 691 0.56 Yes Yes
2004MV2 O C t 2004-06-19.29794 1.000E-05 16:17:03.850 1.500E-01 0.500 F 0.321 -1.238 -00° 34' 18.70" 1.000E-01 0.500 F 0.363 2.482 c 691 4.62 No No
Verenia O C 2004-06-19.30118 1.000E-05 16:12:14.600 1.500E-01 0.500 F 0.240 -0.100 -02° 24' 54.20" 1.000E-01 0.500 F 0.396 -0.022 19.1 V 0.70 0.12 c 691 0.21 Yes Yes

[1-200] [201-400] [401-600] [601-800] [801-1000] [1001-1200] [1201-1400] [1401-1600] [1601-1800] [1801-2000] [2001-2200] [2201-2400] [2401-2600] [2601-2800] [2801-3000] [3001-3200] [3201-3400] [3401-3600] [3601-3800] [3801-4000] [4001-4200] [4201-4400] [4401-4600] [4601-4800] [4801-5000] [5001-5200] [5201-5400] [5401-5600] [5601-5800] [5801-6000] [6001-6200] [6201-6400] [6401-6600] [6601-6800] [6801-7000] [7001-7200] [7201-7400] [7401-7600] [7601-7800] [7801-8000] [8001-8200] [8201-8400] [8401-8600] [8601-8800] [8801-9000] [9001-9200] [9201-9400] [9401-9600] [9601-9800] [9801-10000] [10001-10200] [10201-10400] [10401-10600] [10601-10800] [10801-11000] [11001-11200] [11201-11400] [11401-11600] [11601-11800] [11801-12000] [12001-12200] [12201-12400] [12401-12600] [12601-12800] [12801-13000] [13001-13200] [13201-13400] [13401-13600] [13601-13800] [13801-14000] [14001-14200] [14201-14400] [14401-14600] [14601-14800] [14801-15000] [15001-15200] [15201-15400] [15401-15600] [15601-15800] [15801-16000] [16001-16200] [16201-16400] [16401-16600] [16601-16800] [16801-17000] [17001-17200] [17201-17400] [17401-17600] [17601-17800] [17801-18000] [18001-18200] [18201-18400] [18401-18600] [18601-18800] [18801-19000] [19001-19200] [19201-19400] [19401-19600] [19601-19800] [19801-20000] [20001-20200] [20201-20400] [20401-20600] [20601-20800] [20801-21000] [21001-21200] [21201-21400] [21401-21600] [21601-21800] [21801-22000] [22001-22200] [22201-22400] [22401-22600] [22601-22800] [22801-23000] [23001-23200] [23201-23400] [23401-23600] [23601-23800] [23801-24000] [24001-24200] [24201-24400] [24401-24600] [24601-24800] [24801-25000] [25001-25200] [25201-25400] [25401-25600] [25601-25800] [25801-26000] [26001-26200] [26201-26400] [26401-26600] [26601-26800] [26801-27000] [27001-27200] [27201-27400] [27401-27600] [27601-27800] [27801-28000] [28001-28200] [28201-28400] [28401-28600] [28601-28800] [28801-29000] [29001-29200] [29201-29400] [29401-29600] [29601-29800] [29801-30000] [30001-30200] [30201-30400] [30401-30600] [30601-30800] [30801-31000] [31001-31200] [31201-31400] [31401-31600] [31601-31800] [31801-32000] [32001-32200] [32201-32400] [32401-32600] [32601-32800] [32801-33000] [33001-33200] [33201-33400] [33401-33600] [33601-33800] [33801-34000] [34001-34200] [34201-34400] [34401-34600] [34601-34800] [34801-35000] [35001-35200] [35201-35400] [35401-35600] [35601-35800] [35801-36000] [36001-36200] [36201-36400] [36401-36600] [36601-36800] [36801-37000] [37001-37200] [37201-37400] [37401-37600] [37601-37800] [37801-38000] [38001-38200] [38201-38400] [38401-38600] [38601-38800] [38801-39000] [39001-39200] [39201-39400] [39401-39600] [39601-39800] [39801-40000] [40001-40200] [40201-40400] [40401-40600] [40601-40800] [40801-41000] [41001-41200] [41201-41400] [41401-41600] [41601-41800] [41801-42000] [42001-42200] [42201-42400] [42401-42600] [42601-42800] [42801-43000] [43001-43200] [43201-43400] [43401-43600] [43601-43800] [43801-44000] [44001-44200] [44201-44400] [44401-44600] [44601-44800] [44801-45000] [45001-45200] [45201-45400] [45401-45600] [45601-45800] [45801-46000] [46001-46200] [46201-46400] [46401-46600] [46601-46800] [46801-47000] [47001-47200] [47201-47400] [47401-47600] [47601-47800] [47801-48000] [48001-48200] [48201-48400] [48401-48600] [48601-48800] [48801-49000] [49001-49200] [49201-49400] [49401-49600] [49601-49800] [49801-50000] [50001-50200] [50201-50388]